EDT,Max TemperatureF,Mean TemperatureF,Min TemperatureF,Max Dew PointF,MeanDew PointF,Min DewpointF,Max Humidity, Mean Humidity, Min Humidity, Max Sea Level PressureIn, Mean Sea Level PressureIn, Min Sea Level PressureIn, Max VisibilityMiles, Mean VisibilityMiles, Min VisibilityMiles, Max Wind SpeedMPH, Mean Wind SpeedMPH, Max Gust SpeedMPH,PrecipitationIn, CloudCover, Events, WindDirDegrees
2013-9-1,84,77,69,71,69,67,97,81,65,29.86,29.83,29.80,10,8,3,10,1,13,0.01,6,Fog-Rain,72
2013-9-2,81,74,66,72,68,63,93,80,67,29.81,29.76,29.66,10,9,2,21,5,26,0.60,7,Rain-Thunderstorm,174
2013-9-3,77,70,62,64,59,54,93,71,49,29.88,29.80,29.74,10,10,6,18,5,23,0.00,6,Fog,276
2013-9-4,79,69,58,57,55,52,84,62,39,29.97,29.92,29.88,10,10,10,16,6,21,0.00,3,,280
2013-9-5,72,61,50,58,48,38,78,55,31,30.20,30.03,29.90,10,10,10,20,8,26,T,5,Rain,328
2013-9-6,70,56,42,47,41,35,89,60,30,30.29,30.21,30.13,10,10,10,10,3,14,0.00,3,Fog,278
2013-9-7,75,62,48,58,51,45,86,66,46,30.12,30.01,29.88,10,10,10,12,3,14,T,6,Fog-Rain,186
2013-9-8,72,59,46,60,51,37,90,61,31,30.15,29.91,29.81,10,10,10,21,6,26,T,5,,328
2013-9-9,70,56,41,53,45,38,89,66,42,30.25,30.17,30.09,10,10,10,15,7,21,0.00,5,Fog,168
2013-9-10,79,71,62,71,64,53,90,81,72,30.10,30.05,29.99,10,7,1,20,8,26,0.45,7,Rain-Thunderstorm,170
2013-9-11,93,82,70,77,71,64,97,75,52,30.07,30.02,29.93,10,7,3,24,8,31,0.41,4,Rain-Thunderstorm,183
2013-9-12,83,76,68,72,68,66,93,81,69,29.94,29.79,29.68,10,7,1,16,6,26,1.03,7,Fog-Rain-Thunderstorm,184
2013-9-13,72,63,53,66,57,46,93,83,73,29.88,29.74,29.65,10,8,2,18,6,24,1.39,8,Rain,337
2013-9-14,64,56,48,48,46,42,77,66,55,30.12,29.99,29.88,10,10,10,15,8,20,T,7,,289
2013-9-15,69,56,42,53,47,40,96,74,52,30.20,30.13,30.07,10,10,10,10,3,14,0.00,5,,179
2013-9-16,66,55,43,53,49,39,93,78,63,30.33,30.14,30.04,10,9,3,17,6,21,0.23,6,Rain,333
2013-9-17,64,52,39,44,40,37,92,66,39,30.50,30.41,30.35,10,10,10,10,3,15,0.00,0,Fog,353
2013-9-18,72,56,39,50,44,37,100,70,40,30.36,30.28,30.16,10,7,0,9,2,12,0.00,2,Fog,205
2013-9-19,77,61,44,53,49,42,93,67,41,30.19,30.13,30.06,10,10,10,7,1,9,0.00,0,Fog,197
2013-9-20,79,63,47,55,51,46,93,66,39,30.10,30.04,29.96,10,10,10,14,5,18,0.00,1,Fog,169
2013-9-21,74,66,58,64,58,54,93,75,57,29.97,29.79,29.63,10,10,3,25,13,36,0.56,7,Rain,180
2013-9-22,64,56,48,58,48,40,90,71,51,29.94,29.77,29.63,10,10,5,24,10,30,0.13,7,Rain,285
2013-9-23,62,52,42,41,39,37,83,65,46,30.10,30.02,29.95,10,10,10,17,9,24,0.00,3,,308
2013-9-24,67,54,40,44,40,36,86,64,42,30.09,30.00,29.89,10,10,10,16,6,22,0.00,1,,302
2013-9-25,70,56,41,51,46,39,92,67,42,30.00,29.96,29.91,10,10,10,10,2,14,0.00,1,Fog,22
2013-9-26,66,57,47,48,46,45,86,67,48,30.17,30.08,30.01,10,10,10,15,5,20,0.00,2,,6
2013-9-27,62,52,42,51,47,41,96,80,64,30.31,30.25,30.17,10,10,1,10,3,12,0.00,5,Fog,352
2013-9-28,73,60,46,53,48,45,100,71,41,30.39,30.33,30.25,10,5,0,7,1,9,0.00,4,Fog,357
2013-9-29,73,60,47,54,48,42,93,63,33,30.25,30.19,30.08,10,5,0,9,1,12,0.00,3,Fog,182
2013-9-30,73,61,48,52,49,47,93,67,41,30.12,30.05,29.99,10,10,10,7,1,10,0.00,2,Fog,108